sensor_id;sensor_type;location;lat;lon;timestamp;P1;durP1;ratioP1;P2;durP2;ratioP2
5217;SDS011;26539;51.064;6.346;2023-04-25T00:02:20;30.07;;;6.60;;
5217;SDS011;26539;51.064;6.346;2023-04-25T00:04:46;17.93;;;8.10;;
5217;SDS011;26539;51.064;6.346;2023-04-25T00:07:13;15.93;;;7.10;;
5217;SDS011;26539;51.064;6.346;2023-04-25T00:09:39;22.13;;;5.80;;
5217;SDS011;26539;51.064;6.346;2023-04-25T00:12:05;28.03;;;6.53;;
5217;SDS011;26539;51.064;6.346;2023-04-25T00:14:31;14.40;;;5.97;;
5217;SDS011;26539;51.064;6.346;2023-04-25T00:16:59;15.65;;;5.78;;
5217;SDS011;26539;51.064;6.346;2023-04-25T00:19:24;13.47;;;6.00;;
5217;SDS011;26539;51.064;6.346;2023-04-25T00:21:51;12.77;;;6.88;;
5217;SDS011;26539;51.064;6.346;2023-04-25T00:24:18;22.52;;;6.95;;
5217;SDS011;26539;51.064;6.346;2023-04-25T00:26:44;14.45;;;5.80;;
5217;SDS011;26539;51.064;6.346;2023-04-25T00:29:10;14.60;;;6.20;;
5217;SDS011;26539;51.064;6.346;2023-04-25T00:31:35;20.50;;;6.90;;
5217;SDS011;26539;51.064;6.346;2023-04-25T00:34:01;12.83;;;6.27;;
5217;SDS011;26539;51.064;6.346;2023-04-25T00:36:26;11.40;;;6.17;;
5217;SDS011;26539;51.064;6.346;2023-04-25T00:38:52;19.20;;;6.90;;
5217;SDS011;26539;51.064;6.346;2023-04-25T00:41:19;21.92;;;8.60;;
5217;SDS011;26539;51.064;6.346;2023-04-25T00:43:45;20.10;;;6.00;;
5217;SDS011;26539;51.064;6.346;2023-04-25T00:46:12;18.65;;;6.85;;
5217;SDS011;26539;51.064;6.346;2023-04-25T00:48:38;13.93;;;7.10;;
5217;SDS011;26539;51.064;6.346;2023-04-25T00:51:03;17.80;;;7.73;;
5217;SDS011;26539;51.064;6.346;2023-04-25T00:53:29;23.00;;;9.53;;
5217;SDS011;26539;51.064;6.346;2023-04-25T00:55:56;13.00;;;6.57;;
5217;SDS011;26539;51.064;6.346;2023-04-25T00:58:23;18.30;;;7.13;;
5217;SDS011;26539;51.064;6.346;2023-04-25T01:00:49;20.17;;;9.33;;
5217;SDS011;26539;51.064;6.346;2023-04-25T01:03:17;23.40;;;8.40;;
5217;SDS011;26539;51.064;6.346;2023-04-25T01:05:45;18.70;;;7.32;;
5217;SDS011;26539;51.064;6.346;2023-04-25T01:08:12;15.02;;;6.05;;
5217;SDS011;26539;51.064;6.346;2023-04-25T01:10:38;21.27;;;8.05;;
5217;SDS011;26539;51.064;6.346;2023-04-25T01:13:04;14.23;;;7.23;;
5217;SDS011;26539;51.064;6.346;2023-04-25T01:15:30;18.53;;;7.27;;
5217;SDS011;26539;51.064;6.346;2023-04-25T01:17:55;19.57;;;8.50;;
5217;SDS011;26539;51.064;6.346;2023-04-25T01:20:22;24.10;;;8.15;;
5217;SDS011;26539;51.064;6.346;2023-04-25T01:22:48;19.67;;;8.68;;
5217;SDS011;26539;51.064;6.346;2023-04-25T01:25:15;17.70;;;7.63;;
5217;SDS011;26539;51.064;6.346;2023-04-25T01:27:41;19.63;;;7.05;;
5217;SDS011;26539;51.064;6.346;2023-04-25T01:30:07;17.30;;;7.07;;
5217;SDS011;26539;51.064;6.346;2023-04-25T01:32:34;18.75;;;7.00;;
5217;SDS011;26539;51.064;6.346;2023-04-25T01:35:07;16.77;;;6.65;;
5217;SDS011;26539;51.064;6.346;2023-04-25T01:37:40;11.50;;;6.95;;
5217;SDS011;26539;51.064;6.346;2023-04-25T01:40:07;21.40;;;7.38;;
5217;SDS011;26539;51.064;6.346;2023-04-25T01:42:35;22.52;;;7.63;;
5217;SDS011;26539;51.064;6.346;2023-04-25T01:45:05;11.68;;;6.95;;
5217;SDS011;26539;51.064;6.346;2023-04-25T01:47:31;14.43;;;6.22;;
5217;SDS011;26539;51.064;6.346;2023-04-25T01:49:57;16.07;;;7.30;;
5217;SDS011;26539;51.064;6.346;2023-04-25T01:52:22;17.73;;;7.47;;
5217;SDS011;26539;51.064;6.346;2023-04-25T01:54:48;20.90;;;8.20;;
5217;SDS011;26539;51.064;6.346;2023-04-25T01:57:14;16.90;;;7.82;;
5217;SDS011;26539;51.064;6.346;2023-04-25T01:59:40;27.37;;;7.07;;
5217;SDS011;26539;51.064;6.346;2023-04-25T02:02:07;17.60;;;8.07;;
5217;SDS011;26539;51.064;6.346;2023-04-25T02:04:32;13.93;;;7.20;;
5217;SDS011;26539;51.064;6.346;2023-04-25T02:06:58;11.53;;;6.27;;
5217;SDS011;26539;51.064;6.346;2023-04-25T02:09:23;17.40;;;7.30;;
5217;SDS011;26539;51.064;6.346;2023-04-25T02:11:49;18.37;;;7.43;;
5217;SDS011;26539;51.064;6.346;2023-04-25T02:14:15;15.57;;;7.70;;
5217;SDS011;26539;51.064;6.346;2023-04-25T02:16:40;17.43;;;8.70;;
5217;SDS011;26539;51.064;6.346;2023-04-25T02:19:09;16.85;;;8.85;;
5217;SDS011;26539;51.064;6.346;2023-04-25T02:21:35;14.93;;;7.63;;
5217;SDS011;26539;51.064;6.346;2023-04-25T02:24:01;15.43;;;8.00;;
5217;SDS011;26539;51.064;6.346;2023-04-25T02:26:27;18.65;;;7.60;;
5217;SDS011;26539;51.064;6.346;2023-04-25T02:28:52;19.03;;;8.17;;
5217;SDS011;26539;51.064;6.346;2023-04-25T02:31:18;21.17;;;9.10;;
5217;SDS011;26539;51.064;6.346;2023-04-25T02:33:44;16.90;;;8.70;;
5217;SDS011;26539;51.064;6.346;2023-04-25T02:36:09;20.87;;;9.20;;
5217;SDS011;26539;51.064;6.346;2023-04-25T02:38:35;15.53;;;9.80;;
5217;SDS011;26539;51.064;6.346;2023-04-25T02:41:00;24.60;;;9.80;;
5217;SDS011;26539;51.064;6.346;2023-04-25T02:43:26;23.50;;;9.93;;
5217;SDS011;26539;51.064;6.346;2023-04-25T02:45:51;18.53;;;8.50;;
5217;SDS011;26539;51.064;6.346;2023-04-25T02:48:17;24.60;;;8.67;;
5217;SDS011;26539;51.064;6.346;2023-04-25T02:50:42;20.57;;;10.53;;
5217;SDS011;26539;51.064;6.346;2023-04-25T02:53:08;14.40;;;7.10;;
5217;SDS011;26539;51.064;6.346;2023-04-25T02:55:33;25.43;;;8.30;;
5217;SDS011;26539;51.064;6.346;2023-04-25T02:57:59;13.90;;;7.30;;
5217;SDS011;26539;51.064;6.346;2023-04-25T03:00:24;19.10;;;8.33;;
5217;SDS011;26539;51.064;6.346;2023-04-25T03:02:50;20.57;;;8.67;;
5217;SDS011;26539;51.064;6.346;2023-04-25T03:05:16;19.07;;;7.97;;
5217;SDS011;26539;51.064;6.346;2023-04-25T03:07:42;23.80;;;7.90;;
5217;SDS011;26539;51.064;6.346;2023-04-25T03:10:09;14.80;;;7.50;;
5217;SDS011;26539;51.064;6.346;2023-04-25T03:12:35;16.77;;;8.63;;
5217;SDS011;26539;51.064;6.346;2023-04-25T03:15:01;22.73;;;8.30;;
5217;SDS011;26539;51.064;6.346;2023-04-25T03:17:26;17.53;;;9.00;;
5217;SDS011;26539;51.064;6.346;2023-04-25T03:19:52;16.50;;;8.00;;
5217;SDS011;26539;51.064;6.346;2023-04-25T03:22:17;17.87;;;8.30;;
5217;SDS011;26539;51.064;6.346;2023-04-25T03:24:43;19.80;;;7.53;;
5217;SDS011;26539;51.064;6.346;2023-04-25T03:27:08;19.57;;;8.50;;
5217;SDS011;26539;51.064;6.346;2023-04-25T03:29:34;20.03;;;8.10;;
5217;SDS011;26539;51.064;6.346;2023-04-25T03:32:00;16.47;;;8.03;;
5217;SDS011;26539;51.064;6.346;2023-04-25T03:34:25;17.17;;;7.87;;
5217;SDS011;26539;51.064;6.346;2023-04-25T03:36:51;20.90;;;7.90;;
5217;SDS011;26539;51.064;6.346;2023-04-25T03:39:17;13.80;;;6.83;;
5217;SDS011;26539;51.064;6.346;2023-04-25T03:41:42;17.40;;;7.23;;
5217;SDS011;26539;51.064;6.346;2023-04-25T03:44:08;22.70;;;7.60;;
5217;SDS011;26539;51.064;6.346;2023-04-25T03:46:33;30.50;;;9.80;;
5217;SDS011;26539;51.064;6.346;2023-04-25T03:48:59;16.00;;;7.83;;
5217;SDS011;26539;51.064;6.346;2023-04-25T03:51:24;16.83;;;7.60;;
5217;SDS011;26539;51.064;6.346;2023-04-25T03:53:51;14.73;;;7.63;;
5217;SDS011;26539;51.064;6.346;2023-04-25T03:56:17;15.05;;;7.43;;
5217;SDS011;26539;51.064;6.346;2023-04-25T03:58:42;19.97;;;9.33;;
5217;SDS011;26539;51.064;6.346;2023-04-25T04:01:08;18.80;;;8.80;;
5217;SDS011;26539;51.064;6.346;2023-04-25T04:03:34;21.13;;;8.23;;
5217;SDS011;26539;51.064;6.346;2023-04-25T04:06:01;19.55;;;7.65;;
5217;SDS011;26539;51.064;6.346;2023-04-25T04:08:28;17.27;;;8.07;;
5217;SDS011;26539;51.064;6.346;2023-04-25T04:10:54;19.90;;;9.27;;
5217;SDS011;26539;51.064;6.346;2023-04-25T04:13:20;13.77;;;7.87;;
5217;SDS011;26539;51.064;6.346;2023-04-25T04:15:45;21.30;;;8.07;;
5217;SDS011;26539;51.064;6.346;2023-04-25T04:18:11;21.93;;;8.20;;
5217;SDS011;26539;51.064;6.346;2023-04-25T04:20:36;15.03;;;8.20;;
5217;SDS011;26539;51.064;6.346;2023-04-25T04:23:02;18.47;;;8.33;;
5217;SDS011;26539;51.064;6.346;2023-04-25T04:25:28;17.17;;;7.20;;
5217;SDS011;26539;51.064;6.346;2023-04-25T04:27:53;17.10;;;7.67;;
5217;SDS011;26539;51.064;6.346;2023-04-25T04:30:21;14.95;;;7.65;;
5217;SDS011;26539;51.064;6.346;2023-04-25T04:32:49;22.65;;;8.68;;
5217;SDS011;26539;51.064;6.346;2023-04-25T04:35:15;17.42;;;8.07;;
5217;SDS011;26539;51.064;6.346;2023-04-25T04:37:40;17.17;;;8.37;;
5217;SDS011;26539;51.064;6.346;2023-04-25T04:40:06;17.13;;;8.30;;
5217;SDS011;26539;51.064;6.346;2023-04-25T04:42:32;24.60;;;7.95;;
5217;SDS011;26539;51.064;6.346;2023-04-25T04:44:57;15.23;;;6.63;;
5217;SDS011;26539;51.064;6.346;2023-04-25T04:47:23;15.50;;;7.23;;
5217;SDS011;26539;51.064;6.346;2023-04-25T04:49:50;14.02;;;7.00;;
5217;SDS011;26539;51.064;6.346;2023-04-25T04:52:16;19.90;;;7.93;;
5217;SDS011;26539;51.064;6.346;2023-04-25T04:54:41;20.43;;;8.20;;
5217;SDS011;26539;51.064;6.346;2023-04-25T04:57:07;19.73;;;8.87;;
5217;SDS011;26539;51.064;6.346;2023-04-25T04:59:32;15.17;;;7.93;;
5217;SDS011;26539;51.064;6.346;2023-04-25T05:01:58;17.07;;;8.07;;
5217;SDS011;26539;51.064;6.346;2023-04-25T05:04:23;21.80;;;7.17;;
5217;SDS011;26539;51.064;6.346;2023-04-25T05:06:49;23.53;;;7.30;;
5217;SDS011;26539;51.064;6.346;2023-04-25T05:09:14;13.70;;;6.90;;
5217;SDS011;26539;51.064;6.346;2023-04-25T05:11:40;18.60;;;6.80;;
5217;SDS011;26539;51.064;6.346;2023-04-25T05:14:05;20.13;;;8.00;;
5217;SDS011;26539;51.064;6.346;2023-04-25T05:16:31;10.10;;;6.80;;
5217;SDS011;26539;51.064;6.346;2023-04-25T05:18:56;26.47;;;7.53;;
5217;SDS011;26539;51.064;6.346;2023-04-25T05:21:22;23.13;;;6.30;;
5217;SDS011;26539;51.064;6.346;2023-04-25T05:23:47;19.70;;;6.23;;
5217;SDS011;26539;51.064;6.346;2023-04-25T05:26:13;17.20;;;6.87;;
5217;SDS011;26539;51.064;6.346;2023-04-25T05:28:42;20.37;;;7.17;;
5217;SDS011;26539;51.064;6.346;2023-04-25T05:31:09;19.50;;;6.83;;
5217;SDS011;26539;51.064;6.346;2023-04-25T05:33:35;18.00;;;6.33;;
5217;SDS011;26539;51.064;6.346;2023-04-25T05:36:00;12.70;;;5.97;;
5217;SDS011;26539;51.064;6.346;2023-04-25T05:38:26;13.93;;;5.77;;
5217;SDS011;26539;51.064;6.346;2023-04-25T05:40:51;13.23;;;5.70;;
5217;SDS011;26539;51.064;6.346;2023-04-25T05:43:17;18.47;;;5.30;;
5217;SDS011;26539;51.064;6.346;2023-04-25T05:45:42;13.10;;;5.30;;
5217;SDS011;26539;51.064;6.346;2023-04-25T05:48:08;15.63;;;6.00;;
5217;SDS011;26539;51.064;6.346;2023-04-25T05:50:33;20.40;;;5.80;;
5217;SDS011;26539;51.064;6.346;2023-04-25T05:52:59;11.23;;;4.50;;
5217;SDS011;26539;51.064;6.346;2023-04-25T05:55:24;16.90;;;5.20;;
5217;SDS011;26539;51.064;6.346;2023-04-25T05:57:50;13.63;;;4.10;;
5217;SDS011;26539;51.064;6.346;2023-04-25T06:00:16;17.10;;;5.07;;
5217;SDS011;26539;51.064;6.346;2023-04-25T06:02:41;8.40;;;4.60;;
5217;SDS011;26539;51.064;6.346;2023-04-25T06:05:07;15.53;;;5.10;;
5217;SDS011;26539;51.064;6.346;2023-04-25T06:07:33;14.43;;;4.70;;
5217;SDS011;26539;51.064;6.346;2023-04-25T06:09:59;20.70;;;5.80;;
5217;SDS011;26539;51.064;6.346;2023-04-25T06:12:25;20.17;;;5.10;;
5217;SDS011;26539;51.064;6.346;2023-04-25T06:14:51;14.57;;;5.17;;
5217;SDS011;26539;51.064;6.346;2023-04-25T06:17:17;12.87;;;5.60;;
5217;SDS011;26539;51.064;6.346;2023-04-25T06:19:42;13.10;;;5.07;;
5217;SDS011;26539;51.064;6.346;2023-04-25T06:22:08;14.43;;;5.13;;
5217;SDS011;26539;51.064;6.346;2023-04-25T06:24:33;13.73;;;5.30;;
5217;SDS011;26539;51.064;6.346;2023-04-25T06:26:59;16.00;;;4.97;;
5217;SDS011;26539;51.064;6.346;2023-04-25T06:29:25;19.50;;;4.83;;
5217;SDS011;26539;51.064;6.346;2023-04-25T06:31:50;12.40;;;4.43;;
5217;SDS011;26539;51.064;6.346;2023-04-25T06:34:16;18.20;;;5.00;;
5217;SDS011;26539;51.064;6.346;2023-04-25T06:36:42;17.07;;;4.87;;
5217;SDS011;26539;51.064;6.346;2023-04-25T06:39:09;8.93;;;4.77;;
5217;SDS011;26539;51.064;6.346;2023-04-25T06:41:34;19.23;;;4.60;;
5217;SDS011;26539;51.064;6.346;2023-04-25T06:44:00;7.37;;;4.30;;
5217;SDS011;26539;51.064;6.346;2023-04-25T06:46:26;13.27;;;4.53;;
5217;SDS011;26539;51.064;6.346;2023-04-25T06:48:51;16.23;;;5.17;;
5217;SDS011;26539;51.064;6.346;2023-04-25T06:51:17;10.90;;;3.67;;
5217;SDS011;26539;51.064;6.346;2023-04-25T06:53:43;12.63;;;4.67;;
5217;SDS011;26539;51.064;6.346;2023-04-25T06:56:08;6.77;;;3.70;;
5217;SDS011;26539;51.064;6.346;2023-04-25T06:58:34;16.30;;;4.40;;
5217;SDS011;26539;51.064;6.346;2023-04-25T07:00:59;16.23;;;5.13;;
5217;SDS011;26539;51.064;6.346;2023-04-25T07:03:25;11.17;;;4.30;;
5217;SDS011;26539;51.064;6.346;2023-04-25T07:05:50;14.83;;;5.20;;
5217;SDS011;26539;51.064;6.346;2023-04-25T07:08:16;11.80;;;4.50;;
5217;SDS011;26539;51.064;6.346;2023-04-25T07:10:42;10.10;;;3.80;;
5217;SDS011;26539;51.064;6.346;2023-04-25T07:13:07;9.67;;;3.47;;
5217;SDS011;26539;51.064;6.346;2023-04-25T07:15:33;12.13;;;3.93;;
5217;SDS011;26539;51.064;6.346;2023-04-25T07:17:58;11.13;;;3.40;;
5217;SDS011;26539;51.064;6.346;2023-04-25T07:20:24;9.57;;;4.30;;
5217;SDS011;26539;51.064;6.346;2023-04-25T07:22:50;10.90;;;4.20;;
5217;SDS011;26539;51.064;6.346;2023-04-25T07:25:16;13.73;;;4.27;;
5217;SDS011;26539;51.064;6.346;2023-04-25T07:27:41;10.20;;;4.07;;
5217;SDS011;26539;51.064;6.346;2023-04-25T07:30:07;11.93;;;4.60;;
5217;SDS011;26539;51.064;6.346;2023-04-25T07:32:33;10.60;;;3.67;;
5217;SDS011;26539;51.064;6.346;2023-04-25T07:35:00;13.10;;;3.10;;
5217;SDS011;26539;51.064;6.346;2023-04-25T07:37:26;11.03;;;3.47;;
5217;SDS011;26539;51.064;6.346;2023-04-25T07:39:52;8.63;;;3.50;;
5217;SDS011;26539;51.064;6.346;2023-04-25T07:42:17;9.20;;;2.80;;
5217;SDS011;26539;51.064;6.346;2023-04-25T07:44:43;13.90;;;3.83;;
5217;SDS011;26539;51.064;6.346;2023-04-25T07:47:09;10.53;;;3.33;;
5217;SDS011;26539;51.064;6.346;2023-04-25T07:49:35;14.47;;;3.23;;
5217;SDS011;26539;51.064;6.346;2023-04-25T07:52:01;17.07;;;4.13;;
5217;SDS011;26539;51.064;6.346;2023-04-25T07:54:28;11.63;;;3.27;;
5217;SDS011;26539;51.064;6.346;2023-04-25T07:56:54;11.33;;;3.93;;
5217;SDS011;26539;51.064;6.346;2023-04-25T07:59:19;11.27;;;3.63;;
5217;SDS011;26539;51.064;6.346;2023-04-25T08:01:45;8.90;;;3.50;;
5217;SDS011;26539;51.064;6.346;2023-04-25T08:04:11;11.93;;;3.30;;
5217;SDS011;26539;51.064;6.346;2023-04-25T08:06:36;12.10;;;4.23;;
5217;SDS011;26539;51.064;6.346;2023-04-25T08:09:02;9.90;;;3.60;;
5217;SDS011;26539;51.064;6.346;2023-04-25T08:11:30;8.80;;;3.73;;
5217;SDS011;26539;51.064;6.346;2023-04-25T08:13:56;12.87;;;4.10;;
5217;SDS011;26539;51.064;6.346;2023-04-25T08:16:21;11.87;;;3.97;;
5217;SDS011;26539;51.064;6.346;2023-04-25T08:18:47;11.13;;;3.10;;
5217;SDS011;26539;51.064;6.346;2023-04-25T08:21:12;12.63;;;3.37;;
5217;SDS011;26539;51.064;6.346;2023-04-25T08:23:38;11.43;;;3.17;;
5217;SDS011;26539;51.064;6.346;2023-04-25T08:26:04;9.10;;;3.90;;
5217;SDS011;26539;51.064;6.346;2023-04-25T08:28:30;8.83;;;3.53;;
5217;SDS011;26539;51.064;6.346;2023-04-25T08:30:56;8.20;;;3.00;;
5217;SDS011;26539;51.064;6.346;2023-04-25T08:33:22;9.07;;;2.77;;
5217;SDS011;26539;51.064;6.346;2023-04-25T08:35:47;7.43;;;2.57;;
5217;SDS011;26539;51.064;6.346;2023-04-25T08:38:13;8.30;;;2.93;;
5217;SDS011;26539;51.064;6.346;2023-04-25T08:40:39;15.80;;;3.80;;
5217;SDS011;26539;51.064;6.346;2023-04-25T08:43:06;6.77;;;2.27;;
5217;SDS011;26539;51.064;6.346;2023-04-25T08:45:36;9.50;;;3.17;;
5217;SDS011;26539;51.064;6.346;2023-04-25T08:48:05;4.43;;;2.10;;
5217;SDS011;26539;51.064;6.346;2023-04-25T08:50:35;8.93;;;2.90;;
5217;SDS011;26539;51.064;6.346;2023-04-25T08:53:04;5.90;;;2.55;;
5217;SDS011;26539;51.064;6.346;2023-04-25T08:55:33;10.03;;;3.10;;
5217;SDS011;26539;51.064;6.346;2023-04-25T08:58:00;7.07;;;2.47;;
5217;SDS011;26539;51.064;6.346;2023-04-25T09:00:26;7.83;;;2.97;;
5217;SDS011;26539;51.064;6.346;2023-04-25T09:02:52;7.00;;;2.10;;
5217;SDS011;26539;51.064;6.346;2023-04-25T09:05:18;7.17;;;2.67;;
5217;SDS011;26539;51.064;6.346;2023-04-25T09:07:44;7.10;;;3.10;;
5217;SDS011;26539;51.064;6.346;2023-04-25T09:10:09;8.60;;;3.10;;
5217;SDS011;26539;51.064;6.346;2023-04-25T09:12:35;8.43;;;2.70;;
5217;SDS011;26539;51.064;6.346;2023-04-25T09:15:03;9.33;;;2.50;;
5217;SDS011;26539;51.064;6.346;2023-04-25T09:17:32;11.87;;;3.33;;
5217;SDS011;26539;51.064;6.346;2023-04-25T09:20:07;7.77;;;2.43;;
5217;SDS011;26539;51.064;6.346;2023-04-25T09:22:35;9.57;;;3.30;;
5217;SDS011;26539;51.064;6.346;2023-04-25T09:25:02;5.60;;;3.07;;
5217;SDS011;26539;51.064;6.346;2023-04-25T09:27:29;7.33;;;3.03;;
5217;SDS011;26539;51.064;6.346;2023-04-25T09:29:58;6.03;;;3.00;;
5217;SDS011;26539;51.064;6.346;2023-04-25T09:32:27;6.10;;;3.00;;
5217;SDS011;26539;51.064;6.346;2023-04-25T09:34:54;5.60;;;2.53;;
5217;SDS011;26539;51.064;6.346;2023-04-25T09:37:24;7.80;;;2.50;;
5217;SDS011;26539;51.064;6.346;2023-04-25T09:42:30;8.77;;;3.50;;
5217;SDS011;26539;51.064;6.346;2023-04-25T09:44:57;6.20;;;2.60;;
5217;SDS011;26539;51.064;6.346;2023-04-25T09:47:24;7.13;;;2.60;;
5217;SDS011;26539;51.064;6.346;2023-04-25T09:49:51;10.00;;;2.43;;
5217;SDS011;26539;51.064;6.346;2023-04-25T09:52:18;5.33;;;2.50;;
5217;SDS011;26539;51.064;6.346;2023-04-25T09:54:48;10.07;;;3.10;;
5217;SDS011;26539;51.064;6.346;2023-04-25T09:59:46;9.37;;;3.33;;
5217;SDS011;26539;51.064;6.346;2023-04-25T10:02:19;9.57;;;2.43;;
5217;SDS011;26539;51.064;6.346;2023-04-25T10:04:53;6.80;;;2.50;;
5217;SDS011;26539;51.064;6.346;2023-04-25T10:07:28;9.60;;;3.30;;
5217;SDS011;26539;51.064;6.346;2023-04-25T10:09:59;7.20;;;2.97;;
5217;SDS011;26539;51.064;6.346;2023-04-25T10:12:29;11.73;;;2.63;;
5217;SDS011;26539;51.064;6.346;2023-04-25T10:14:59;10.90;;;4.30;;
5217;SDS011;26539;51.064;6.346;2023-04-25T10:17:25;11.87;;;3.03;;
5217;SDS011;26539;51.064;6.346;2023-04-25T10:19:54;9.03;;;2.90;;
5217;SDS011;26539;51.064;6.346;2023-04-25T10:22:41;7.30;;;2.60;;
5217;SDS011;26539;51.064;6.346;2023-04-25T10:25:09;6.80;;;2.37;;
5217;SDS011;26539;51.064;6.346;2023-04-25T10:27:36;10.23;;;2.77;;
5217;SDS011;26539;51.064;6.346;2023-04-25T10:30:09;3.40;;;2.20;;
5217;SDS011;26539;51.064;6.346;2023-04-25T10:32:39;4.00;;;2.00;;
5217;SDS011;26539;51.064;6.346;2023-04-25T10:37:37;9.33;;;2.80;;
5217;SDS011;26539;51.064;6.346;2023-04-25T10:40:09;5.73;;;2.30;;
5217;SDS011;26539;51.064;6.346;2023-04-25T10:42:35;5.17;;;2.33;;
5217;SDS011;26539;51.064;6.346;2023-04-25T10:45:02;7.40;;;2.27;;
5217;SDS011;26539;51.064;6.346;2023-04-25T10:47:36;3.83;;;2.10;;
5217;SDS011;26539;51.064;6.346;2023-04-25T10:50:08;6.17;;;2.53;;
5217;SDS011;26539;51.064;6.346;2023-04-25T10:52:34;6.83;;;2.67;;
5217;SDS011;26539;51.064;6.346;2023-04-25T10:54:59;6.23;;;2.30;;
5217;SDS011;26539;51.064;6.346;2023-04-25T10:57:49;5.50;;;2.60;;
5217;SDS011;26539;51.064;6.346;2023-04-25T11:00:16;6.13;;;2.20;;
5217;SDS011;26539;51.064;6.346;2023-04-25T11:05:10;7.07;;;2.70;;
5217;SDS011;26539;51.064;6.346;2023-04-25T11:07:52;7.97;;;3.13;;
5217;SDS011;26539;51.064;6.346;2023-04-25T11:10:21;6.50;;;2.60;;
5217;SDS011;26539;51.064;6.346;2023-04-25T11:12:50;6.87;;;2.17;;
5217;SDS011;26539;51.064;6.346;2023-04-25T11:15:16;9.40;;;2.83;;
5217;SDS011;26539;51.064;6.346;2023-04-25T11:17:41;9.13;;;2.50;;
5217;SDS011;26539;51.064;6.346;2023-04-25T11:20:08;5.30;;;2.03;;
5217;SDS011;26539;51.064;6.346;2023-04-25T11:22:36;4.97;;;1.87;;
5217;SDS011;26539;51.064;6.346;2023-04-25T11:25:04;6.37;;;2.27;;
5217;SDS011;26539;51.064;6.346;2023-04-25T11:27:31;7.07;;;2.10;;
5217;SDS011;26539;51.064;6.346;2023-04-25T11:29:56;4.70;;;1.60;;
5217;SDS011;26539;51.064;6.346;2023-04-25T11:32:22;6.23;;;2.33;;
5217;SDS011;26539;51.064;6.346;2023-04-25T11:34:48;6.10;;;2.57;;
5217;SDS011;26539;51.064;6.346;2023-04-25T11:37:13;5.83;;;2.20;;
5217;SDS011;26539;51.064;6.346;2023-04-25T11:39:42;12.80;;;2.10;;
5217;SDS011;26539;51.064;6.346;2023-04-25T11:42:09;8.10;;;2.50;;
5217;SDS011;26539;51.064;6.346;2023-04-25T11:44:35;7.57;;;2.40;;
5217;SDS011;26539;51.064;6.346;2023-04-25T11:47:04;7.33;;;2.13;;
5217;SDS011;26539;51.064;6.346;2023-04-25T11:49:30;5.43;;;1.97;;
5217;SDS011;26539;51.064;6.346;2023-04-25T11:51:56;9.57;;;2.23;;
5217;SDS011;26539;51.064;6.346;2023-04-25T11:54:22;6.33;;;2.10;;
5217;SDS011;26539;51.064;6.346;2023-04-25T11:56:48;4.50;;;2.13;;
5217;SDS011;26539;51.064;6.346;2023-04-25T11:59:13;4.10;;;2.30;;
5217;SDS011;26539;51.064;6.346;2023-04-25T12:01:40;5.93;;;2.27;;
5217;SDS011;26539;51.064;6.346;2023-04-25T12:04:40;5.73;;;2.10;;
5217;SDS011;26539;51.064;6.346;2023-04-25T12:06:58;9.47;;;3.00;;
5217;SDS011;26539;51.064;6.346;2023-04-25T12:09:29;7.20;;;2.63;;
5217;SDS011;26539;51.064;6.346;2023-04-25T12:11:57;8.40;;;2.93;;
5217;SDS011;26539;51.064;6.346;2023-04-25T12:14:25;5.47;;;2.17;;
5217;SDS011;26539;51.064;6.346;2023-04-25T12:16:56;4.10;;;2.10;;
5217;SDS011;26539;51.064;6.346;2023-04-25T12:19:23;6.63;;;2.53;;
5217;SDS011;26539;51.064;6.346;2023-04-25T12:21:49;4.60;;;2.20;;
5217;SDS011;26539;51.064;6.346;2023-04-25T12:29:26;5.30;;;2.27;;
5217;SDS011;26539;51.064;6.346;2023-04-25T12:31:53;5.87;;;2.30;;
5217;SDS011;26539;51.064;6.346;2023-04-25T12:34:20;7.50;;;2.90;;
5217;SDS011;26539;51.064;6.346;2023-04-25T12:36:46;5.43;;;2.70;;
5217;SDS011;26539;51.064;6.346;2023-04-25T12:39:22;4.80;;;2.30;;
5217;SDS011;26539;51.064;6.346;2023-04-25T12:41:49;5.13;;;2.03;;
5217;SDS011;26539;51.064;6.346;2023-04-25T12:44:15;6.43;;;2.30;;
5217;SDS011;26539;51.064;6.346;2023-04-25T12:46:42;5.60;;;2.10;;
5217;SDS011;26539;51.064;6.346;2023-04-25T12:49:07;4.77;;;2.60;;
5217;SDS011;26539;51.064;6.346;2023-04-25T12:51:36;6.10;;;1.93;;
5217;SDS011;26539;51.064;6.346;2023-04-25T12:54:03;3.47;;;1.70;;
5217;SDS011;26539;51.064;6.346;2023-04-25T12:56:29;6.10;;;2.10;;
5217;SDS011;26539;51.064;6.346;2023-04-25T12:58:55;3.67;;;1.50;;
5217;SDS011;26539;51.064;6.346;2023-04-25T13:01:22;7.80;;;1.67;;
5217;SDS011;26539;51.064;6.346;2023-04-25T13:03:48;4.93;;;1.70;;
5217;SDS011;26539;51.064;6.346;2023-04-25T13:06:14;5.20;;;1.80;;
5217;SDS011;26539;51.064;6.346;2023-04-25T13:08:40;4.93;;;1.70;;
5217;SDS011;26539;51.064;6.346;2023-04-25T13:11:07;4.43;;;2.80;;
5217;SDS011;26539;51.064;6.346;2023-04-25T13:13:33;5.23;;;2.10;;
5217;SDS011;26539;51.064;6.346;2023-04-25T13:16:00;6.17;;;1.80;;
5217;SDS011;26539;51.064;6.346;2023-04-25T13:18:26;6.60;;;1.60;;
5217;SDS011;26539;51.064;6.346;2023-04-25T13:20:52;3.97;;;1.77;;
5217;SDS011;26539;51.064;6.346;2023-04-25T13:23:18;6.30;;;1.57;;
5217;SDS011;26539;51.064;6.346;2023-04-25T13:25:45;4.97;;;1.90;;
5217;SDS011;26539;51.064;6.346;2023-04-25T13:28:11;4.80;;;2.20;;
5217;SDS011;26539;51.064;6.346;2023-04-25T13:30:36;4.10;;;2.10;;
5217;SDS011;26539;51.064;6.346;2023-04-25T13:33:04;5.00;;;2.03;;
5217;SDS011;26539;51.064;6.346;2023-04-25T13:35:31;2.73;;;1.67;;
5217;SDS011;26539;51.064;6.346;2023-04-25T13:37:57;5.53;;;2.23;;
5217;SDS011;26539;51.064;6.346;2023-04-25T13:40:23;7.17;;;2.60;;
5217;SDS011;26539;51.064;6.346;2023-04-25T13:42:48;4.17;;;1.60;;
5217;SDS011;26539;51.064;6.346;2023-04-25T13:45:14;4.23;;;1.77;;
5217;SDS011;26539;51.064;6.346;2023-04-25T13:47:39;5.20;;;1.40;;
5217;SDS011;26539;51.064;6.346;2023-04-25T13:50:05;5.80;;;1.40;;
5217;SDS011;26539;51.064;6.346;2023-04-25T13:52:32;6.63;;;1.90;;
5217;SDS011;26539;51.064;6.346;2023-04-25T13:54:57;6.10;;;2.23;;
5217;SDS011;26539;51.064;6.346;2023-04-25T13:57:23;2.83;;;1.40;;
5217;SDS011;26539;51.064;6.346;2023-04-25T13:59:50;3.30;;;1.60;;
5217;SDS011;26539;51.064;6.346;2023-04-25T14:02:16;2.70;;;1.57;;
5217;SDS011;26539;51.064;6.346;2023-04-25T14:04:41;10.53;;;2.40;;
5217;SDS011;26539;51.064;6.346;2023-04-25T14:07:07;5.43;;;1.77;;
5217;SDS011;26539;51.064;6.346;2023-04-25T14:09:33;8.90;;;3.27;;
5217;SDS011;26539;51.064;6.346;2023-04-25T14:11:59;4.00;;;1.50;;
5217;SDS011;26539;51.064;6.346;2023-04-25T14:14:25;6.27;;;1.50;;
5217;SDS011;26539;51.064;6.346;2023-04-25T14:16:51;4.90;;;1.90;;
5217;SDS011;26539;51.064;6.346;2023-04-25T14:19:18;3.53;;;1.57;;
5217;SDS011;26539;51.064;6.346;2023-04-25T14:21:45;5.20;;;1.50;;
5217;SDS011;26539;51.064;6.346;2023-04-25T14:24:11;3.57;;;1.30;;
5217;SDS011;26539;51.064;6.346;2023-04-25T14:26:37;3.43;;;1.30;;
5217;SDS011;26539;51.064;6.346;2023-04-25T14:29:03;7.87;;;1.40;;
5217;SDS011;26539;51.064;6.346;2023-04-25T14:31:30;4.53;;;1.80;;
5217;SDS011;26539;51.064;6.346;2023-04-25T14:33:56;3.27;;;1.70;;
5217;SDS011;26539;51.064;6.346;2023-04-25T14:36:22;8.00;;;1.80;;
5217;SDS011;26539;51.064;6.346;2023-04-25T14:38:47;6.10;;;1.30;;
5217;SDS011;26539;51.064;6.346;2023-04-25T14:41:13;2.87;;;1.47;;
5217;SDS011;26539;51.064;6.346;2023-04-25T14:43:38;4.77;;;1.27;;
5217;SDS011;26539;51.064;6.346;2023-04-25T14:46:05;5.20;;;1.47;;
5217;SDS011;26539;51.064;6.346;2023-04-25T14:48:31;5.00;;;1.70;;
5217;SDS011;26539;51.064;6.346;2023-04-25T14:50:57;3.63;;;1.60;;
5217;SDS011;26539;51.064;6.346;2023-04-25T14:53:23;3.33;;;1.70;;
5217;SDS011;26539;51.064;6.346;2023-04-25T14:55:48;2.80;;;2.17;;
5217;SDS011;26539;51.064;6.346;2023-04-25T14:58:14;4.13;;;2.50;;
5217;SDS011;26539;51.064;6.346;2023-04-25T15:00:40;3.77;;;1.63;;
5217;SDS011;26539;51.064;6.346;2023-04-25T15:03:05;7.27;;;1.47;;
5217;SDS011;26539;51.064;6.346;2023-04-25T15:05:32;6.27;;;1.97;;